createdAt,value
2023-03-10T00:00:55.853Z,12.66
2023-03-10T00:02:55.460Z,12.55
2023-03-10T00:03:55.374Z,12.52
2023-03-10T00:04:55.414Z,12.51
2023-03-10T00:05:55.296Z,12.52
2023-03-10T00:06:55.476Z,12.60
2023-03-10T00:07:55.088Z,12.61
2023-03-10T00:09:52.464Z,12.46
2023-03-10T00:23:38.729Z,12.53
2023-03-10T00:24:38.627Z,12.45
2023-03-10T00:25:38.543Z,12.60
2023-03-10T00:26:38.462Z,12.64
2023-03-10T00:27:38.382Z,12.60
2023-03-10T00:28:38.300Z,12.51
2023-03-10T00:29:38.219Z,12.49
2023-03-10T00:30:38.141Z,12.45
2023-03-10T00:31:38.122Z,12.51
2023-03-10T00:32:38.130Z,12.44
2023-03-10T00:33:37.900Z,12.51
2023-03-10T00:34:37.819Z,12.41
2023-03-10T00:35:37.763Z,12.39
2023-03-10T00:36:37.670Z,12.42
2023-03-10T00:37:37.574Z,12.41
2023-03-10T00:38:37.496Z,12.39
2023-03-10T00:39:37.431Z,12.41
2023-03-10T00:40:37.333Z,12.44
2023-03-10T00:41:37.252Z,12.37
2023-03-10T00:42:37.174Z,12.33
2023-03-10T00:43:37.094Z,12.24
2023-03-10T00:44:37.022Z,12.15
2023-03-10T00:45:36.932Z,12.16
2023-03-10T00:46:36.875Z,12.12
2023-03-10T00:47:37.106Z,12.12
2023-03-10T00:48:36.691Z,12.12
2023-03-10T00:49:36.604Z,12.11
2023-03-10T00:50:36.523Z,12.18
2023-03-10T00:51:36.445Z,12.27
2023-03-10T00:52:36.367Z,12.27
2023-03-10T00:53:36.282Z,12.27
2023-03-10T00:54:36.203Z,12.28
2023-03-10T00:55:36.142Z,12.23
2023-03-10T00:56:36.085Z,12.33
2023-03-10T00:57:35.956Z,12.31
2023-03-10T00:58:35.881Z,12.26
2023-03-10T00:59:49.336Z,12.33
2023-03-10T01:00:35.711Z,12.33
2023-03-10T01:01:35.692Z,12.31
2023-03-10T01:02:35.561Z,12.27
2023-03-10T01:03:35.469Z,12.33
2023-03-10T01:04:35.464Z,12.27
2023-03-10T01:05:35.344Z,12.30
2023-03-10T01:06:35.243Z,12.21
2023-03-10T01:07:35.148Z,12.23
2023-03-10T01:08:35.064Z,12.24
2023-03-10T01:09:35.004Z,12.16
2023-03-10T01:10:34.900Z,12.15
2023-03-10T01:11:34.860Z,12.16
2023-03-10T01:12:34.788Z,12.08
2023-03-10T01:13:34.660Z,12.19
2023-03-10T01:14:34.604Z,12.12
2023-03-10T01:15:34.574Z,12.23
2023-03-10T01:16:34.538Z,12.15
2023-03-10T01:17:34.333Z,12.16
2023-03-10T01:18:34.253Z,12.23
2023-03-10T01:19:34.173Z,12.19
2023-03-10T01:20:34.103Z,12.05
2023-03-10T01:21:34.008Z,12.19
2023-03-10T01:22:34.176Z,12.19
2023-03-10T01:23:33.849Z,12.16
2023-03-10T01:24:33.763Z,12.21
2023-03-10T01:25:33.686Z,12.16
2023-03-10T01:26:33.641Z,12.19
2023-03-10T01:27:33.541Z,12.12
2023-03-10T01:28:33.441Z,12.24
2023-03-10T01:29:33.394Z,12.13
2023-03-10T01:30:33.277Z,12.18
2023-03-10T01:31:33.282Z,12.21
2023-03-10T01:32:33.191Z,12.16
2023-03-10T01:33:33.070Z,12.13
2023-03-10T01:34:32.953Z,12.16
2023-03-10T01:35:32.974Z,12.16
2023-03-10T01:36:32.792Z,12.09
2023-03-10T01:37:32.713Z,12.13
2023-03-10T01:38:32.625Z,12.09
2023-03-10T01:39:32.551Z,12.09
2023-03-10T01:40:32.461Z,12.13
2023-03-10T01:41:32.387Z,12.15
2023-03-10T01:42:32.297Z,12.08
2023-03-10T01:43:32.238Z,12.12
2023-03-10T01:44:32.138Z,12.13
2023-03-10T01:45:32.059Z,12.00
2023-03-10T01:46:32.121Z,11.97
2023-03-10T01:47:31.893Z,11.90
2023-03-10T01:48:31.812Z,11.95
2023-03-10T01:49:32.539Z,11.95
2023-03-10T01:50:31.651Z,12.00
2023-03-10T01:51:31.572Z,12.15
2023-03-10T01:52:31.484Z,12.16
2023-03-10T01:53:31.409Z,12.09
2023-03-10T01:54:31.326Z,12.13
2023-03-10T01:55:31.244Z,12.08
2023-03-10T01:56:31.162Z,12.03
2023-03-10T01:57:31.081Z,11.97
2023-03-10T01:58:30.998Z,11.78
2023-03-10T01:59:30.995Z,11.76
2023-03-10T02:00:30.865Z,11.71
2023-03-10T02:01:30.754Z,11.56
2023-03-10T02:02:30.839Z,11.57
2023-03-10T02:03:30.692Z,11.54
2023-03-10T02:04:30.508Z,11.38
2023-03-10T02:05:30.429Z,11.32
2023-03-10T02:06:30.345Z,11.32
2023-03-10T02:07:30.414Z,11.26
2023-03-10T02:08:30.187Z,11.18
2023-03-10T02:09:30.099Z,11.18
2023-03-10T02:10:30.017Z,11.06
2023-03-10T02:11:29.940Z,11.03
2023-03-10T02:12:29.857Z,11.03
2023-03-10T02:13:29.788Z,11.06
2023-03-10T02:14:29.695Z,11.00
2023-03-10T02:15:29.632Z,10.98
2023-03-10T02:21:18.339Z,11.06
2023-03-10T02:22:18.251Z,11.08
2023-03-10T02:23:18.167Z,11.10
2023-03-10T02:24:18.093Z,11.03
2023-03-10T02:25:18.006Z,11.05
2023-03-10T02:26:17.927Z,11.03
2023-03-10T02:27:17.853Z,10.98
2023-03-10T02:28:18.008Z,10.96
2023-03-10T02:29:17.679Z,11.05
2023-03-10T02:30:17.766Z,11.10
2023-03-10T02:31:17.678Z,11.06
2023-03-10T02:32:17.472Z,11.06
2023-03-10T02:33:17.352Z,11.17
2023-03-10T02:34:17.269Z,11.17
2023-03-10T02:35:17.188Z,11.14
2023-03-10T02:36:17.112Z,11.18
2023-03-10T02:37:17.030Z,11.16
2023-03-10T02:38:17.095Z,11.18
2023-03-10T02:39:16.863Z,11.18
2023-03-10T02:40:16.781Z,11.14
2023-03-10T02:41:16.708Z,11.18
2023-03-10T02:42:16.618Z,11.20
2023-03-10T02:43:16.533Z,11.14
2023-03-10T02:44:16.453Z,11.23
2023-03-10T02:45:16.369Z,11.14
2023-03-10T02:46:16.342Z,11.14
2023-03-10T02:47:16.231Z,11.08
2023-03-10T02:48:16.124Z,11.16
2023-03-10T02:49:16.049Z,11.10
2023-03-10T02:50:15.958Z,11.08
2023-03-10T02:51:15.877Z,11.10
2023-03-10T02:52:15.798Z,11.08
2023-03-10T02:53:15.718Z,11.03
2023-03-10T02:54:15.632Z,11.02
2023-03-10T02:55:15.550Z,11.02
2023-03-10T02:56:15.471Z,11.03
2023-03-10T02:57:15.389Z,11.03
2023-03-10T02:58:15.303Z,11.05
2023-03-10T02:59:15.226Z,11.03
2023-03-10T03:00:15.142Z,11.08
2023-03-10T03:01:15.103Z,11.06
2023-03-10T03:02:14.977Z,10.98
2023-03-10T03:03:14.912Z,10.98
2023-03-10T03:04:14.920Z,11.00
2023-03-10T03:05:14.781Z,10.99
2023-03-10T03:06:14.844Z,10.95
2023-03-10T03:07:14.918Z,10.99
2023-03-10T03:08:14.483Z,10.99
2023-03-10T03:09:14.402Z,10.99
2023-03-10T03:10:14.422Z,10.92
2023-03-10T03:11:14.243Z,11.03
2023-03-10T03:12:14.157Z,10.81
2023-03-10T03:13:14.091Z,10.96
2023-03-10T03:14:14.011Z,11.05
2023-03-10T03:15:13.915Z,10.96
2023-03-10T03:16:13.950Z,10.96
2023-03-10T03:17:13.748Z,11.03
2023-03-10T03:18:13.665Z,10.98
2023-03-10T03:19:13.603Z,10.96
2023-03-10T03:20:13.536Z,10.95
2023-03-10T03:21:13.422Z,10.92
2023-03-10T03:22:13.356Z,11.02
2023-03-10T03:23:13.260Z,10.99
2023-03-10T03:24:13.172Z,11.05
2023-03-10T03:25:13.090Z,10.99
2023-03-10T03:26:13.015Z,11.10
2023-03-10T03:27:12.924Z,11.06
2023-03-10T03:28:12.846Z,10.99
2023-03-10T03:29:12.761Z,10.99
2023-03-10T03:30:12.686Z,11.06
2023-03-10T03:31:12.794Z,11.03
2023-03-10T03:32:12.633Z,10.99
2023-03-10T03:33:12.435Z,11.02
2023-03-10T03:34:12.360Z,11.05
2023-03-10T03:35:12.331Z,11.00
2023-03-10T03:36:12.191Z,10.96
2023-03-10T03:37:12.107Z,11.06
2023-03-10T03:38:12.023Z,11.00
2023-03-10T03:39:11.985Z,11.00
2023-03-10T03:40:11.864Z,10.95
2023-03-10T03:41:11.794Z,10.91
2023-03-10T03:42:11.700Z,10.96
2023-03-10T03:43:11.616Z,10.95
2023-03-10T03:44:11.534Z,11.02
2023-03-10T03:45:11.600Z,10.98
2023-03-10T03:46:11.432Z,10.98
2023-03-10T03:47:11.290Z,11.03
2023-03-10T03:48:11.205Z,10.98
2023-03-10T03:49:11.275Z,10.96
2023-03-10T03:50:11.054Z,10.96
2023-03-10T03:51:10.982Z,11.00
2023-03-10T03:52:10.877Z,10.95
2023-03-10T03:53:10.800Z,10.95
2023-03-10T03:54:10.719Z,10.92
2023-03-10T03:55:10.635Z,10.96
2023-03-10T03:56:10.565Z,10.93
2023-03-10T03:57:10.478Z,10.93
2023-03-10T03:58:10.389Z,10.87
2023-03-10T03:59:10.309Z,10.81
2023-03-10T04:00:10.225Z,10.91
2023-03-10T04:01:10.148Z,10.92
2023-03-10T04:02:10.126Z,10.80
2023-03-10T04:03:09.990Z,10.92
2023-03-10T04:04:09.902Z,10.92
2023-03-10T04:05:09.821Z,10.84
2023-03-10T04:06:09.897Z,10.81
2023-03-10T04:07:09.672Z,10.80
2023-03-10T04:08:09.573Z,10.85
2023-03-10T04:09:09.489Z,10.81
2023-03-10T04:10:09.407Z,10.88
2023-03-10T04:11:09.331Z,10.92
2023-03-10T04:12:09.244Z,10.91
2023-03-10T04:13:09.424Z,10.93
2023-03-10T04:14:09.079Z,10.83
2023-03-10T04:15:09.043Z,10.81
2023-03-10T04:16:08.947Z,10.78
2023-03-10T04:17:11.198Z,10.87
2023-03-10T04:18:08.753Z,10.83
2023-03-10T04:19:08.932Z,10.88
2023-03-10T04:20:08.801Z,10.84
2023-03-10T04:21:08.508Z,10.81
2023-03-10T04:22:08.425Z,10.81
2023-03-10T04:23:08.361Z,10.91
2023-03-10T04:24:08.267Z,10.87
2023-03-10T04:25:08.178Z,10.93
2023-03-10T04:26:08.446Z,10.81
2023-03-10T04:27:08.015Z,11.02
2023-03-10T04:28:07.934Z,11.00
2023-03-10T04:29:07.865Z,10.95
2023-03-10T04:30:07.768Z,10.98
2023-03-10T04:31:07.712Z,10.95
2023-03-10T04:32:07.608Z,10.98
2023-03-10T04:33:07.524Z,11.03
2023-03-10T04:34:07.447Z,11.03
2023-03-10T04:35:07.361Z,10.98
2023-03-10T04:36:07.368Z,10.99
2023-03-10T04:37:07.200Z,10.93
2023-03-10T04:38:07.174Z,10.96
2023-03-10T04:39:07.052Z,10.96
2023-03-10T04:40:06.952Z,10.85
2023-03-10T04:41:06.878Z,10.96
2023-03-10T04:42:06.837Z,10.93
2023-03-10T04:43:06.707Z,10.95
2023-03-10T04:44:08.267Z,10.91
2023-03-10T04:45:06.541Z,10.78
2023-03-10T04:46:06.502Z,10.84
2023-03-10T04:47:06.385Z,10.83
2023-03-10T04:48:06.295Z,10.84
2023-03-10T04:49:06.217Z,10.78
2023-03-10T04:50:06.147Z,10.75
2023-03-10T04:51:06.063Z,10.78
2023-03-10T04:52:05.983Z,10.83
2023-03-10T04:53:05.886Z,10.81
2023-03-10T04:54:05.856Z,10.91
2023-03-10T04:55:05.787Z,10.88
2023-03-10T04:56:05.689Z,10.83
2023-03-10T04:57:05.564Z,10.95
2023-03-10T04:58:05.483Z,10.93
2023-03-10T04:59:05.402Z,10.81
2023-03-10T05:00:05.374Z,10.98
2023-03-10T05:01:05.300Z,10.83
2023-03-10T05:02:05.221Z,10.88
2023-03-10T05:03:05.065Z,10.91
2023-03-10T05:04:05.041Z,10.93
2023-03-10T05:05:04.899Z,10.93
2023-03-10T05:06:04.818Z,10.95
2023-03-10T05:07:04.739Z,10.95
2023-03-10T05:08:04.664Z,10.88
2023-03-10T05:09:04.579Z,10.81
2023-03-10T05:10:04.488Z,10.87
2023-03-10T05:11:04.426Z,10.95
2023-03-10T05:12:04.321Z,10.96
2023-03-10T05:13:04.444Z,10.96
2023-03-10T05:14:04.163Z,10.81
2023-03-10T05:15:04.075Z,10.87
2023-03-10T05:16:04.053Z,10.98
2023-03-10T05:17:03.916Z,10.98
2023-03-10T05:18:03.833Z,10.95
2023-03-10T05:19:03.749Z,10.92
2023-03-10T05:20:03.765Z,10.96
2023-03-10T05:21:03.592Z,10.88
2023-03-10T05:22:03.504Z,10.85
2023-03-10T05:23:03.418Z,10.85
2023-03-10T05:24:03.337Z,10.85
2023-03-10T05:25:03.265Z,10.84
2023-03-10T05:26:03.173Z,10.83
2023-03-10T05:27:03.119Z,10.95
2023-03-10T05:28:03.011Z,10.83
2023-03-10T05:29:02.928Z,10.96
2023-03-10T05:30:02.840Z,10.96
2023-03-10T05:31:02.810Z,10.88
2023-03-10T05:32:02.683Z,10.91
2023-03-10T05:33:02.605Z,10.95
2023-03-10T05:34:02.534Z,10.93
2023-03-10T05:35:02.442Z,10.98
2023-03-10T05:36:02.401Z,10.91
2023-03-10T05:37:02.280Z,10.98
2023-03-10T05:38:02.190Z,10.95
2023-03-10T05:39:02.314Z,10.98
2023-03-10T05:40:02.030Z,10.98
2023-03-10T05:41:01.949Z,10.93
2023-03-10T05:42:01.869Z,10.93
2023-03-10T05:43:01.798Z,10.96
2023-03-10T05:44:01.707Z,10.96
2023-03-10T05:45:01.621Z,10.84
2023-03-10T05:46:01.573Z,10.99
2023-03-10T05:47:01.518Z,10.95
2023-03-10T05:48:01.370Z,10.88
2023-03-10T05:49:01.291Z,10.98
2023-03-10T05:50:01.210Z,10.93
2023-03-10T05:51:01.129Z,10.95
2023-03-10T05:52:01.059Z,10.95
2023-03-10T05:53:00.998Z,10.95
2023-03-10T05:54:00.895Z,10.95
2023-03-10T05:55:01.101Z,10.95
2023-03-10T05:56:00.734Z,10.93
2023-03-10T05:57:00.642Z,10.95
2023-03-10T05:58:00.557Z,10.99
2023-03-10T05:59:00.503Z,10.92
2023-03-10T06:00:00.394Z,10.99
2023-03-10T06:01:00.385Z,10.95
2023-03-10T06:02:00.229Z,10.98
2023-03-10T06:03:00.204Z,10.98
2023-03-10T06:04:00.158Z,11.00
2023-03-10T06:04:59.992Z,10.95
2023-03-10T06:05:59.903Z,10.99
2023-03-10T06:06:59.821Z,11.08
2023-03-10T06:07:59.739Z,11.08
2023-03-10T06:08:59.756Z,11.20
2023-03-10T06:09:59.578Z,11.13
2023-03-10T06:10:59.493Z,11.13
2023-03-10T06:11:59.413Z,11.16
2023-03-10T06:12:59.330Z,11.18
2023-03-10T06:13:59.260Z,11.10
2023-03-10T06:14:59.195Z,11.13
2023-03-10T06:15:59.136Z,11.13
2023-03-10T06:16:59.042Z,11.06
2023-03-10T06:17:58.935Z,11.16
2023-03-10T06:18:58.844Z,11.23
2023-03-10T06:19:58.770Z,11.16
2023-03-10T06:20:58.681Z,11.17
2023-03-10T06:21:58.596Z,11.18
2023-03-10T06:22:58.515Z,11.32
2023-03-10T06:23:58.586Z,11.28
2023-03-10T06:24:58.354Z,11.31
2023-03-10T06:25:58.271Z,11.28
2023-03-10T06:26:58.191Z,11.26
2023-03-10T06:27:58.106Z,11.26
2023-03-10T06:28:58.026Z,11.34
2023-03-10T06:29:57.948Z,11.35
2023-03-10T06:30:57.914Z,11.34
2023-03-10T06:31:57.845Z,11.31
2023-03-10T06:32:57.880Z,11.36
2023-03-10T06:33:57.630Z,11.34
2023-03-10T06:34:57.540Z,11.34
2023-03-10T06:35:57.517Z,11.39
2023-03-10T06:36:57.381Z,11.42
2023-03-10T06:37:57.317Z,11.39
2023-03-10T06:38:57.214Z,11.39
2023-03-10T06:39:57.136Z,11.36
2023-03-10T06:40:57.054Z,11.42
2023-03-10T06:41:56.983Z,11.35
2023-03-10T06:42:57.290Z,11.38
2023-03-10T06:43:56.809Z,11.36
2023-03-10T06:44:56.730Z,11.43
2023-03-10T06:45:56.747Z,11.39
2023-03-10T06:46:56.831Z,11.38
2023-03-10T06:47:56.485Z,11.38
2023-03-10T06:48:56.404Z,11.38
2023-03-10T06:49:56.581Z,11.39
2023-03-10T06:50:56.239Z,11.51
2023-03-10T06:51:56.160Z,11.54
2023-03-10T06:52:56.077Z,11.59
2023-03-10T06:53:55.995Z,11.47
2023-03-10T06:54:55.917Z,11.43
2023-03-10T06:55:55.832Z,11.49
2023-03-10T06:56:55.754Z,11.50
2023-03-10T06:57:55.672Z,11.56
2023-03-10T06:58:55.589Z,11.39
2023-03-10T06:59:55.511Z,11.42
2023-03-10T07:00:55.492Z,11.42
2023-03-10T07:01:55.348Z,11.39
2023-03-10T07:02:55.277Z,11.35
2023-03-10T07:03:55.180Z,11.46
2023-03-10T07:04:55.186Z,11.50
2023-03-10T07:05:55.015Z,11.53
2023-03-10T07:06:54.932Z,11.54
2023-03-10T07:07:54.853Z,11.57
2023-03-10T07:08:54.768Z,11.54
2023-03-10T07:09:54.692Z,11.56
2023-03-10T07:10:54.712Z,11.56
2023-03-10T07:11:54.529Z,11.56
2023-03-10T07:12:54.443Z,11.61
2023-03-10T07:13:54.365Z,11.67
2023-03-10T07:14:54.278Z,11.69
2023-03-10T07:15:54.201Z,11.69
2023-03-10T07:16:54.184Z,11.72
2023-03-10T07:17:54.076Z,11.69
2023-03-10T07:18:53.991Z,11.76
2023-03-10T07:19:53.880Z,11.79
2023-03-10T07:20:53.796Z,11.79
2023-03-10T07:21:53.721Z,11.90
2023-03-10T07:22:53.658Z,11.87
2023-03-10T07:23:53.548Z,11.86
2023-03-10T07:24:53.489Z,11.89
2023-03-10T07:25:53.650Z,11.98
2023-03-10T07:26:53.315Z,11.93
2023-03-10T07:27:53.225Z,11.95
2023-03-10T07:28:53.143Z,12.06
2023-03-10T07:29:53.067Z,11.93
2023-03-10T07:30:53.054Z,11.97
2023-03-10T07:31:52.915Z,12.00
2023-03-10T07:32:52.979Z,12.09
2023-03-10T07:33:52.735Z,12.08
2023-03-10T07:34:52.967Z,12.09
2023-03-10T07:35:52.662Z,12.02
2023-03-10T07:36:52.492Z,12.09
2023-03-10T07:37:52.566Z,12.08
2023-03-10T07:38:52.632Z,12.23
2023-03-10T07:39:52.255Z,12.24
2023-03-10T07:40:52.222Z,12.39
2023-03-10T07:41:52.096Z,12.44
2023-03-10T07:42:52.011Z,12.36
2023-03-10T07:43:51.935Z,12.42
2023-03-10T07:44:51.849Z,12.55
2023-03-10T07:45:51.794Z,12.53
2023-03-10T07:46:51.692Z,12.52
2023-03-10T07:47:51.608Z,12.66
2023-03-10T07:48:51.530Z,12.48
2023-03-10T07:49:51.449Z,12.51
2023-03-10T07:50:51.391Z,12.51
2023-03-10T07:51:51.289Z,12.45
2023-03-10T07:52:51.206Z,12.53
2023-03-10T07:53:51.126Z,12.55
2023-03-10T07:54:51.049Z,12.63
2023-03-10T07:55:51.021Z,12.52
2023-03-10T07:56:51.285Z,12.44
2023-03-10T07:57:50.814Z,12.49
2023-03-10T07:58:50.729Z,12.45
2023-03-10T07:59:50.653Z,12.51
2023-03-10T08:00:50.566Z,12.51
2023-03-10T08:01:50.741Z,12.41
2023-03-10T08:02:50.404Z,12.45
2023-03-10T08:03:50.417Z,12.41
2023-03-10T08:04:50.389Z,12.27
2023-03-10T08:05:50.321Z,12.26
2023-03-10T08:06:50.103Z,12.23
2023-03-10T08:07:50.055Z,12.16
2023-03-10T08:08:49.925Z,12.16
2023-03-10T08:09:49.910Z,12.23
2023-03-10T08:10:49.766Z,12.15
2023-03-10T08:11:49.683Z,12.09
2023-03-10T08:13:49.653Z,11.95
2023-03-10T08:14:49.441Z,11.89
2023-03-10T08:15:49.458Z,11.81
2023-03-10T08:16:49.292Z,11.83
2023-03-10T08:17:49.415Z,11.75
2023-03-10T08:18:49.120Z,11.72
2023-03-10T08:19:49.049Z,11.67
2023-03-10T08:20:49.316Z,11.68
2023-03-10T08:21:48.877Z,11.50
2023-03-10T08:22:48.824Z,11.36
2023-03-10T08:23:48.730Z,11.35
2023-03-10T08:24:49.185Z,11.24
2023-03-10T08:25:48.557Z,11.20
2023-03-10T08:26:48.476Z,11.14
2023-03-10T08:27:48.392Z,11.14
2023-03-10T08:28:48.311Z,11.16
2023-03-10T08:29:48.232Z,11.14
2023-03-10T08:31:03.101Z,11.14
2023-03-10T08:31:48.114Z,11.03
2023-03-10T08:32:48.019Z,10.93
2023-03-10T08:33:48.154Z,10.96
2023-03-10T08:34:47.823Z,10.80
2023-03-10T08:35:47.788Z,10.66
2023-03-10T08:36:47.662Z,10.67
2023-03-10T08:37:47.585Z,10.63
2023-03-10T08:38:47.536Z,10.62
2023-03-10T08:39:47.419Z,10.53
2023-03-10T08:40:47.336Z,10.43
2023-03-10T08:41:47.605Z,10.43
2023-03-10T08:42:48.612Z,10.47
2023-03-10T08:43:49.128Z,10.41
2023-03-10T08:44:47.015Z,10.46
2023-03-10T08:45:46.940Z,10.51
2023-03-10T08:46:47.091Z,10.37
2023-03-10T08:47:46.764Z,10.44
2023-03-10T08:48:46.692Z,10.33
2023-03-10T08:49:48.842Z,10.33
2023-03-10T08:50:46.522Z,10.31
2023-03-10T08:51:46.441Z,10.46
2023-03-10T08:52:46.360Z,10.34
2023-03-10T08:53:46.274Z,10.29
2023-03-10T08:54:46.254Z,10.36
2023-03-10T08:55:46.118Z,10.26
2023-03-10T08:56:46.033Z,10.34
2023-03-10T08:57:45.946Z,10.23
2023-03-10T08:58:45.865Z,10.31
2023-03-10T08:59:45.786Z,10.29
2023-03-10T09:00:45.705Z,10.29
2023-03-10T09:01:45.728Z,10.34
2023-03-10T09:02:45.757Z,10.44
2023-03-10T09:03:45.458Z,10.59
2023-03-10T09:04:45.374Z,10.44
2023-03-10T09:05:45.292Z,10.66
2023-03-10T09:06:45.223Z,10.65
2023-03-10T09:07:45.130Z,10.66
2023-03-10T09:08:45.196Z,10.74
2023-03-10T09:09:44.974Z,10.74
2023-03-10T09:10:44.906Z,10.66
2023-03-10T09:11:44.803Z,10.75
2023-03-10T09:12:44.733Z,10.66
2023-03-10T09:13:44.854Z,10.77
2023-03-10T09:14:44.572Z,10.78
2023-03-10T09:15:44.478Z,10.67
2023-03-10T09:16:44.513Z,10.67
2023-03-10T09:17:44.312Z,10.65
2023-03-10T09:18:44.233Z,10.74
2023-03-10T09:19:44.171Z,10.87
2023-03-10T09:20:44.128Z,10.77
2023-03-10T09:21:43.987Z,10.67
2023-03-10T09:22:43.902Z,10.77
2023-03-10T09:23:43.823Z,10.81
2023-03-10T09:24:43.741Z,10.85
2023-03-10T09:25:43.668Z,10.84
2023-03-10T09:26:44.813Z,10.87
2023-03-10T09:27:46.241Z,10.78
2023-03-10T09:28:43.422Z,10.80
2023-03-10T09:29:43.813Z,10.95
2023-03-10T09:30:43.260Z,11.00
2023-03-10T09:31:43.266Z,10.93
2023-03-10T09:32:43.223Z,11.03
2023-03-10T09:33:43.050Z,11.13
2023-03-10T09:34:42.941Z,11.20
2023-03-10T09:35:52.581Z,11.41
2023-03-10T09:36:42.771Z,11.59
2023-03-10T09:37:42.890Z,11.75
2023-03-10T09:38:42.760Z,11.79
2023-03-10T09:39:43.058Z,12.03
2023-03-10T09:40:42.449Z,12.09
2023-03-10T09:41:42.370Z,12.18
2023-03-10T09:42:42.348Z,12.23
2023-03-10T09:43:42.246Z,12.27
2023-03-10T09:44:42.201Z,12.18
2023-03-10T09:45:42.142Z,11.79
2023-03-10T09:46:42.002Z,11.68
2023-03-10T09:47:41.949Z,11.72
2023-03-10T09:48:41.804Z,11.54
2023-03-10T09:49:41.741Z,11.56
2023-03-10T09:50:41.684Z,11.54
2023-03-10T09:51:41.599Z,11.69
2023-03-10T09:52:41.529Z,11.71
2023-03-10T09:53:41.446Z,11.59
2023-03-10T09:54:42.330Z,11.53
2023-03-10T09:55:47.348Z,11.32
2023-03-10T09:56:41.196Z,11.16
2023-03-10T09:57:41.121Z,11.23
2023-03-10T09:58:41.045Z,11.13
2023-03-10T09:59:40.955Z,11.06
2023-03-10T10:00:40.907Z,11.14
2023-03-10T10:01:40.768Z,11.17
2023-03-10T10:02:40.698Z,11.16
2023-03-10T10:03:52.101Z,10.98
2023-03-10T10:04:40.625Z,10.99
2023-03-10T10:05:40.502Z,10.96
2023-03-10T10:06:40.371Z,10.95
2023-03-10T10:07:40.278Z,10.77
2023-03-10T10:08:40.222Z,10.84
2023-03-10T10:09:40.153Z,10.83
2023-03-10T10:10:40.074Z,10.74
2023-03-10T10:11:40.004Z,10.59
2023-03-10T10:12:39.940Z,10.58
2023-03-10T10:13:42.344Z,10.53
2023-03-10T10:14:42.627Z,10.41
2023-03-10T10:15:39.738Z,10.33
2023-03-10T10:16:39.571Z,10.46
2023-03-10T10:17:50.862Z,10.41
2023-03-10T10:18:39.524Z,10.44
2023-03-10T10:19:39.380Z,10.43
2023-03-10T10:20:39.268Z,10.29
2023-03-10T10:21:42.627Z,10.31
2023-03-10T10:22:39.086Z,10.33
2023-03-10T10:23:39.009Z,10.34
2023-03-10T10:24:38.965Z,10.39
2023-03-10T10:25:40.156Z,10.33
2023-03-10T10:26:38.791Z,10.37
2023-03-10T10:27:38.700Z,10.26
2023-03-10T10:28:38.605Z,10.28
2023-03-10T10:29:38.557Z,10.34
2023-03-10T10:30:38.521Z,10.40
2023-03-10T10:31:38.357Z,10.55
2023-03-10T10:32:38.365Z,10.43
2023-03-10T10:33:38.339Z,10.47
2023-03-10T10:34:38.080Z,10.40
2023-03-10T10:35:38.149Z,10.46
2023-03-10T10:36:37.955Z,10.46
2023-03-10T10:37:41.259Z,10.41
2023-03-10T10:38:37.769Z,10.46
2023-03-10T10:39:37.674Z,10.59
2023-03-10T10:40:37.617Z,10.63
2023-03-10T10:41:37.547Z,10.56
2023-03-10T10:42:37.430Z,10.47
2023-03-10T10:43:37.433Z,10.44
2023-03-10T10:44:37.468Z,10.44
2023-03-10T10:45:37.221Z,10.51
2023-03-10T10:46:37.353Z,10.47
2023-03-10T10:47:37.067Z,10.62
2023-03-10T10:48:37.021Z,10.69
2023-03-10T10:49:36.897Z,10.66
2023-03-10T10:50:36.824Z,10.63
2023-03-10T10:51:36.771Z,10.60
2023-03-10T10:52:36.617Z,10.74
2023-03-10T10:53:36.558Z,10.60
2023-03-10T10:54:36.513Z,10.53
2023-03-10T10:55:36.446Z,10.47
2023-03-10T10:56:36.327Z,10.56
2023-03-10T10:57:36.270Z,10.58
2023-03-10T10:58:36.193Z,10.56
2023-03-10T10:59:36.080Z,10.71
2023-03-10T11:00:36.009Z,10.66
2023-03-10T11:01:35.984Z,10.53
2023-03-10T11:02:35.917Z,10.59
2023-03-10T11:03:35.765Z,10.62
2023-03-10T11:04:35.728Z,10.59
2023-03-10T11:05:35.593Z,10.62
2023-03-10T11:06:35.521Z,10.58
2023-03-10T11:07:35.474Z,10.63
2023-03-10T11:08:35.356Z,10.66
2023-03-10T11:09:35.283Z,10.69
2023-03-10T11:10:35.257Z,10.67
2023-03-10T11:11:35.114Z,10.66
2023-03-10T11:12:35.035Z,10.71
2023-03-10T11:13:34.989Z,10.71
2023-03-10T11:14:34.867Z,10.69
2023-03-10T11:15:34.817Z,10.66
2023-03-10T11:16:34.728Z,10.66
2023-03-10T11:17:34.620Z,10.56
2023-03-10T11:18:34.570Z,10.69
2023-03-10T11:19:34.487Z,10.67
2023-03-10T11:20:34.369Z,10.66
2023-03-10T11:21:34.350Z,10.69
2023-03-10T11:22:34.243Z,10.60
2023-03-10T11:23:34.198Z,10.60
2023-03-10T11:24:34.063Z,10.44
2023-03-10T11:25:34.003Z,10.55
2023-03-10T11:26:33.962Z,10.51
2023-03-10T11:27:33.787Z,10.46
2023-03-10T11:28:33.771Z,10.43
2023-03-10T11:29:33.652Z,10.46
2023-03-10T11:30:33.539Z,10.59
2023-03-10T11:31:33.663Z,10.60
2023-03-10T11:32:33.512Z,10.53
2023-03-10T11:33:33.292Z,10.55
2023-03-10T11:34:33.281Z,10.62
2023-03-10T11:35:33.162Z,10.53
2023-03-10T11:36:33.945Z,10.62
2023-03-10T11:37:33.057Z,10.65
2023-03-10T11:38:32.975Z,10.65
2023-03-10T11:39:32.837Z,10.66
2023-03-10T11:40:32.776Z,10.75
2023-03-10T11:41:32.720Z,10.66
2023-03-10T11:42:32.612Z,10.67
2023-03-10T11:43:32.562Z,10.75
2023-03-10T11:44:32.459Z,10.83
2023-03-10T11:45:32.363Z,10.84
2023-03-10T11:46:32.310Z,10.75
2023-03-10T11:47:32.194Z,10.87
2023-03-10T11:48:32.097Z,10.81
2023-03-10T11:49:32.226Z,10.80
2023-03-10T11:50:32.168Z,10.87
2023-03-10T11:51:31.869Z,10.95
2023-03-10T11:52:31.906Z,10.71
2023-03-10T11:53:31.690Z,10.71
2023-03-10T11:54:31.621Z,10.73
2023-03-10T11:55:31.572Z,10.74
2023-03-10T11:56:31.420Z,10.84
2023-03-10T11:57:31.339Z,10.77
2023-03-10T11:58:31.282Z,10.75
2023-03-10T11:59:31.175Z,10.78
2023-03-10T12:00:31.128Z,10.74
2023-03-10T12:01:31.208Z,10.65
2023-03-10T12:02:30.984Z,10.65
2023-03-10T12:03:30.988Z,10.74
2023-03-10T12:04:30.778Z,10.77
2023-03-10T12:05:30.733Z,10.78
2023-03-10T12:06:30.632Z,10.69
2023-03-10T12:07:30.615Z,10.73
2023-03-10T12:08:30.512Z,10.63
2023-03-10T12:09:30.386Z,10.62
2023-03-10T12:10:30.327Z,10.63
2023-03-10T12:11:30.234Z,10.58
2023-03-10T12:12:30.134Z,10.60
2023-03-10T12:13:30.045Z,10.62
2023-03-10T12:14:29.986Z,10.71
2023-03-10T12:15:29.906Z,10.71
2023-03-10T12:16:29.905Z,10.73
2023-03-10T12:17:29.818Z,10.80
2023-03-10T12:18:29.659Z,10.91
2023-03-10T12:19:29.584Z,10.80
2023-03-10T12:20:29.590Z,10.93
2023-03-10T12:21:29.417Z,11.02
2023-03-10T12:22:29.362Z,10.98
2023-03-10T12:23:29.307Z,10.87
2023-03-10T12:24:29.139Z,10.96
2023-03-10T12:25:29.115Z,10.95
2023-03-10T12:26:29.071Z,10.92
2023-03-10T12:27:28.906Z,10.81
2023-03-10T12:28:29.158Z,10.85
2023-03-10T12:29:28.795Z,10.84
2023-03-10T12:30:28.649Z,10.85
2023-03-10T12:31:28.635Z,10.92
2023-03-10T12:32:28.578Z,10.83
2023-03-10T12:33:28.448Z,10.95
2023-03-10T12:34:28.352Z,10.92
2023-03-10T12:35:28.242Z,10.84
2023-03-10T12:36:28.239Z,10.81
2023-03-10T12:37:28.124Z,10.95
2023-03-10T12:38:28.113Z,10.85
2023-03-10T12:39:27.955Z,10.80
2023-03-10T12:40:27.870Z,10.98
2023-03-10T12:41:27.906Z,10.99
2023-03-10T12:42:27.720Z,10.96
2023-03-10T12:43:27.624Z,10.92
2023-03-10T12:44:27.567Z,10.83
2023-03-10T12:45:27.475Z,10.66
2023-03-10T12:46:27.415Z,10.74
2023-03-10T12:47:27.306Z,10.77
2023-03-10T12:48:27.378Z,10.62
2023-03-10T12:49:27.189Z,10.71
2023-03-10T12:50:27.072Z,10.58
2023-03-10T12:51:27.195Z,10.59
2023-03-10T12:52:26.863Z,10.62
2023-03-10T12:53:26.802Z,10.73
2023-03-10T12:54:26.732Z,10.69
2023-03-10T12:55:26.624Z,10.66
2023-03-10T12:56:26.538Z,10.59
2023-03-10T12:57:26.458Z,10.71
2023-03-10T12:58:26.395Z,10.56
2023-03-10T12:59:26.494Z,10.62
2023-03-10T13:00:26.214Z,10.37
2023-03-10T13:01:26.210Z,10.44
2023-03-10T13:02:26.155Z,10.40
2023-03-10T13:03:26.079Z,10.37
2023-03-10T13:04:25.894Z,10.44
2023-03-10T13:05:25.811Z,10.40
2023-03-10T13:06:25.846Z,10.46
2023-03-10T13:07:25.646Z,10.41
2023-03-10T13:08:25.563Z,10.33
2023-03-10T13:09:25.486Z,10.31
2023-03-10T13:10:25.430Z,10.29
2023-03-10T13:11:25.343Z,10.37
2023-03-10T13:12:25.240Z,10.43